Time;durP1;ratioP1;P1;durP2;ratioP2;P2;SDS_P1;SDS_P2;PMS_P1;PMS_P2;Temp;Humidity;BMP_temperature;BMP_pressure;BME280_temperature;BME280_humidity;BME280_pressure;Samples;Min_cycle;Max_cycle;Signal;HPM_P1;HPM_P2
2022/11/26 00:00:49;;;;;;;;;;;21.50;99.90;;;;;;5113480;28;20056;-59
2022/11/26 00:03:16;;;;;;;;;;;21.30;99.90;;;;;;5113462;28;19911;-59
2022/11/26 00:05:44;;;;;;;;;;;21.10;99.90;;;;;;5113642;28;19908;-60
2022/11/26 00:08:15;;;;;;;;;;;21.10;99.90;;;;;;5113533;28;20376;-60
2022/11/26 00:10:42;;;;;;;;;;;21.30;99.90;;;;;;5113585;28;19912;-59
2022/11/26 00:13:16;;;;;;;;;;;21.20;99.90;;;;;;5113328;28;19961;-59
2022/11/26 00:15:43;;;;;;;;;;;21.20;99.90;;;;;;5113635;28;19915;-60
2022/11/26 00:18:11;;;;;;;;;;;21.40;99.90;;;;;;5113606;28;19908;-59
2022/11/26 00:20:38;;;;;;;;;;;21.30;99.90;;;;;;5113304;28;20019;-60
2022/11/26 00:23:05;;;;;;;;;;;21.30;99.90;;;;;;5113285;28;19954;-59
2022/11/26 00:25:40;;;;;;;;;;;21.50;99.90;;;;;;5113352;28;19922;-59
2022/11/26 00:28:26;;;;;;;;;;;21.40;99.90;;;;;;5113257;28;20355;-59
2022/11/26 00:30:55;;;;;;;;;;;21.40;99.90;;;;;;5112875;28;19911;-60
2022/11/26 00:33:22;;;;;;;;;;;21.50;99.90;;;;;;5113222;28;19918;-60
2022/11/26 00:35:55;;;;;;;;;;;21.60;99.90;;;;;;5113333;28;19920;-60
2022/11/26 00:38:22;;;;;;;;;;;21.70;99.90;;;;;;5113582;28;19966;-60
2022/11/26 00:40:48;;;;;;;;;;;21.80;99.90;;;;;;5094999;28;19908;-59
2022/11/26 00:43:16;;;;;;;;;;;21.60;99.90;;;;;;5113334;28;19941;-60
2022/11/26 00:45:43;;;;;;;;;;;21.80;99.90;;;;;;5113393;28;19908;-59
2022/11/26 00:48:10;;;;;;;;;;;22.10;99.90;;;;;;5113220;28;19908;-60
2022/11/26 00:50:42;;;;;;;;;;;22.60;99.90;;;;;;5115064;28;19912;-59
2022/11/26 00:53:11;;;;;;;;;;;23.10;99.90;;;;;;5117096;28;20365;-59
2022/11/26 00:55:39;;;;;;;;;;;23.50;99.90;;;;;;5117002;28;19916;-59
2022/11/26 00:58:06;;;;;;;;;;;23.60;99.90;;;;;;5117052;28;19908;-59
2022/11/26 01:00:34;;;;;;;;;;;23.70;99.90;;;;;;5116850;28;19908;-59
2022/11/26 01:03:01;;;;;;;;;;;24.10;99.10;;;;;;5116453;28;19930;-59
2022/11/26 01:05:29;;;;;;;;;;;24.20;98.80;;;;;;5116864;28;19908;-59
2022/11/26 01:07:57;;;;;;;;;;;23.90;99.60;;;;;;5116911;28;20010;-59
2022/11/26 01:10:26;;;;;;;;;;;24.00;99.40;;;;;;5116943;28;19914;-59
2022/11/26 01:12:53;;;;;;;;;;;24.30;99.50;;;;;;5116408;28;20033;-59
2022/11/26 01:15:21;;;;;;;;;;;24.30;98.70;;;;;;5116629;28;20358;-58
2022/11/26 01:17:48;;;;;;;;;;;24.20;99.10;;;;;;5116527;28;19907;-59
2022/11/26 01:20:21;;;;;;;;;;;24.60;98.60;;;;;;5116665;28;20437;-61
2022/11/26 01:22:49;;;;;;;;;;;25.00;97.60;;;;;;5116319;28;19946;-58
2022/11/26 01:25:16;;;;;;;;;;;24.70;98.00;;;;;;5116574;28;20354;-59
2022/11/26 01:27:43;;;;;;;;;;;24.80;97.70;;;;;;5116494;28;19915;-59
2022/11/26 01:30:21;;;;;;;;;;;25.10;96.90;;;;;;5116441;28;20278;-59
2022/11/26 01:32:48;;;;;;;;;;;25.20;97.90;;;;;;5115960;28;19908;-60
2022/11/26 01:35:16;;;;;;;;;;;25.60;97.30;;;;;;5116254;28;20338;-61
2022/11/26 01:37:44;;;;;;;;;;;25.60;97.50;;;;;;5116293;28;19908;-60
2022/11/26 01:40:25;;;;;;;;;;;25.10;97.60;;;;;;5116185;28;19961;-61
2022/11/26 01:43:01;;;;;;;;;;;24.70;96.90;;;;;;5115900;28;19920;-60
2022/11/26 01:45:28;;;;;;;;;;;24.00;98.00;;;;;;5116228;28;20399;-62
2022/11/26 01:47:54;;;;;;;;;;;23.20;99.70;;;;;;5116098;28;19907;-62
2022/11/26 01:50:30;;;;;;;;;;;23.00;99.90;;;;;;5116069;28;19915;-60
2022/11/26 01:53:09;;;;;;;;;;;23.00;99.80;;;;;;5115683;28;19930;-63
2022/11/26 01:55:40;;;;;;;;;;;22.80;99.90;;;;;;5115721;28;20120;-60
2022/11/26 01:58:12;;;;;;;;;;;22.80;99.80;;;;;;5116081;28;19915;-63
2022/11/26 02:00:39;;;;;;;;;;;22.60;99.90;;;;;;5115598;28;20274;-61
2022/11/26 02:03:07;;;;;;;;;;;22.80;99.90;;;;;;5115531;28;20035;-63
2022/11/26 02:05:41;;;;;;;;;;;22.90;99.90;;;;;;5116109;28;19915;-61
2022/11/26 02:08:09;;;;;;;;;;;22.80;99.90;;;;;;5115713;28;19912;-62
2022/11/26 02:10:36;;;;;;;;;;;22.70;99.90;;;;;;5115856;28;20369;-60
2022/11/26 02:13:03;;;;;;;;;;;22.70;99.90;;;;;;5115376;28;19914;-71
2022/11/26 02:15:34;;;;;;;;;;;22.60;99.90;;;;;;5115871;28;19934;-69
2022/11/26 02:18:04;;;;;;;;;;;22.60;99.90;;;;;;5115694;28;19959;-65
2022/11/26 02:20:34;;;;;;;;;;;22.60;99.90;;;;;;5115344;28;20358;-67
2022/11/26 02:23:19;;;;;;;;;;;22.30;99.90;;;;;;5115293;28;19916;-65
2022/11/26 02:25:57;;;;;;;;;;;22.60;99.90;;;;;;5115450;28;19915;-69
2022/11/26 02:28:38;;;;;;;;;;;22.40;99.90;;;;;;5115633;28;19912;-68
2022/11/26 02:31:08;;;;;;;;;;;22.50;99.90;;;;;;5115136;28;19915;-68
2022/11/26 02:33:37;;;;;;;;;;;22.20;99.90;;;;;;5115117;28;19953;-66
2022/11/26 02:36:09;;;;;;;;;;;22.30;99.90;;;;;;5115172;28;19930;-65
2022/11/26 02:38:37;;;;;;;;;;;22.40;99.90;;;;;;5115126;28;20326;-67
2022/11/26 02:41:04;;;;;;;;;;;22.40;99.90;;;;;;5114853;28;20026;-66
2022/11/26 02:43:31;;;;;;;;;;;22.30;99.90;;;;;;5115045;28;20338;-68
2022/11/26 02:46:04;;;;;;;;;;;22.40;99.90;;;;;;5115012;28;19908;-69
2022/11/26 02:48:33;;;;;;;;;;;22.40;99.90;;;;;;5114903;28;20381;-68
2022/11/26 02:51:03;;;;;;;;;;;22.40;99.90;;;;;;5114689;28;19908;-70
2022/11/26 02:53:31;;;;;;;;;;;22.40;99.90;;;;;;5115009;28;19915;-71
2022/11/26 02:56:11;;;;;;;;;;;22.60;99.90;;;;;;5114686;28;20127;-71
2022/11/26 02:58:38;;;;;;;;;;;22.70;99.90;;;;;;5114648;28;19912;-68
2022/11/26 03:01:08;;;;;;;;;;;22.40;99.90;;;;;;5114587;28;19916;-68
2022/11/26 03:03:38;;;;;;;;;;;22.10;99.90;;;;;;5114468;28;19907;-70
2022/11/26 03:06:07;;;;;;;;;;;21.90;99.90;;;;;;5114599;28;19998;-71
2022/11/26 03:08:34;;;;;;;;;;;21.80;99.90;;;;;;5114586;28;19915;-68
2022/11/26 03:11:01;;;;;;;;;;;21.70;99.90;;;;;;5114354;28;19994;-69
2022/11/26 03:13:27;;;;;;;;;;;21.60;99.90;;;;;;5113800;28;19908;-71
2022/11/26 03:15:54;;;;;;;;;;;21.90;99.90;;;;;;5114351;28;19914;-70
2022/11/26 03:18:21;;;;;;;;;;;21.90;99.90;;;;;;5114367;28;19915;-69
2022/11/26 03:20:48;;;;;;;;;;;21.60;99.90;;;;;;5113935;28;19907;-67
2022/11/26 03:23:14;;;;;;;;;;;21.60;99.90;;;;;;5114291;28;20251;-68
2022/11/26 03:25:41;;;;;;;;;;;21.50;99.90;;;;;;5114265;28;19962;-68
2022/11/26 03:28:08;;;;;;;;;;;21.60;99.90;;;;;;5114325;28;19908;-69
2022/11/26 03:30:34;;;;;;;;;;;21.80;99.90;;;;;;5114079;28;19908;-68
2022/11/26 03:33:01;;;;;;;;;;;21.70;99.90;;;;;;5114001;28;19954;-67
2022/11/26 03:35:28;;;;;;;;;;;21.60;99.90;;;;;;5114267;28;19908;-65
2022/11/26 03:37:54;;;;;;;;;;;21.60;99.90;;;;;;5113918;28;19907;-71
2022/11/26 03:40:21;;;;;;;;;;;21.60;99.90;;;;;;5114051;28;19907;-68
2022/11/26 03:42:48;;;;;;;;;;;21.80;99.90;;;;;;5113736;28;19915;-72
2022/11/26 03:45:14;;;;;;;;;;;21.90;99.90;;;;;;5113835;28;19908;-68
2022/11/26 03:47:41;;;;;;;;;;;21.90;99.90;;;;;;5113727;28;19915;-70
2022/11/26 03:50:08;;;;;;;;;;;22.10;99.90;;;;;;5113966;28;20358;-65
2022/11/26 03:52:35;;;;;;;;;;;21.80;99.90;;;;;;5113800;28;19907;-70
2022/11/26 03:55:01;;;;;;;;;;;21.60;99.90;;;;;;5113681;28;19919;-70
2022/11/26 03:57:28;;;;;;;;;;;21.40;99.90;;;;;;5113594;28;19920;-69
2022/11/26 03:59:55;;;;;;;;;;;21.30;99.90;;;;;;5113781;28;20263;-69
2022/11/26 04:02:22;;;;;;;;;;;21.60;99.90;;;;;;5113485;28;19939;-67
2022/11/26 04:04:48;;;;;;;;;;;21.50;99.90;;;;;;5113618;28;20366;-64
2022/11/26 04:07:15;;;;;;;;;;;21.50;99.90;;;;;;5113582;28;20002;-70
2022/11/26 04:09:42;;;;;;;;;;;21.50;99.90;;;;;;5113674;28;19967;-67
2022/11/26 04:12:08;;;;;;;;;;;21.50;99.90;;;;;;5113645;28;19969;-69
2022/11/26 04:14:35;;;;;;;;;;;21.40;99.90;;;;;;5113634;28;19961;-69
2022/11/26 04:17:02;;;;;;;;;;;21.20;99.90;;;;;;5113322;28;19964;-67
2022/11/26 04:19:29;;;;;;;;;;;21.30;99.90;;;;;;5113638;28;19908;-63
2022/11/26 04:21:56;;;;;;;;;;;21.20;99.90;;;;;;5113265;28;19915;-70
2022/11/26 04:24:22;;;;;;;;;;;21.10;99.90;;;;;;5114874;28;19912;-67
2022/11/26 04:26:49;;;;;;;;;;;21.10;99.90;;;;;;5117448;28;19926;-67
2022/11/26 04:29:16;;;;;;;;;;;21.20;99.90;;;;;;5117675;28;20273;-65
2022/11/26 04:31:43;;;;;;;;;;;21.50;99.90;;;;;;5117323;28;20010;-70
2022/11/26 04:34:09;;;;;;;;;;;21.70;99.90;;;;;;5117760;28;19912;-70
2022/11/26 04:36:38;;;;;;;;;;;21.50;99.90;;;;;;5117384;28;19999;-69
2022/11/26 04:39:04;;;;;;;;;;;21.30;99.90;;;;;;5117207;28;20413;-69
2022/11/26 04:41:31;;;;;;;;;;;21.10;99.90;;;;;;5117280;28;19915;-68
2022/11/26 04:43:58;;;;;;;;;;;21.20;99.90;;;;;;5117365;28;20277;-66
2022/11/26 04:46:24;;;;;;;;;;;21.10;99.90;;;;;;5117279;28;19915;-70
2022/11/26 04:48:51;;;;;;;;;;;21.00;99.90;;;;;;5117079;28;19956;-66
2022/11/26 04:51:21;;;;;;;;;;;20.90;99.90;;;;;;5117287;28;20381;-68
2022/11/26 04:53:47;;;;;;;;;;;20.90;99.90;;;;;;5117140;28;19914;-67
2022/11/26 04:56:14;;;;;;;;;;;20.80;99.90;;;;;;5116892;28;20003;-67
2022/11/26 04:58:41;;;;;;;;;;;20.90;99.90;;;;;;5117026;28;19960;-69
2022/11/26 05:01:08;;;;;;;;;;;21.00;99.90;;;;;;5116625;28;19912;-70
2022/11/26 05:03:35;;;;;;;;;;;21.00;99.90;;;;;;5116864;28;19957;-68
2022/11/26 05:06:02;;;;;;;;;;;20.90;99.90;;;;;;5116739;28;19919;-68
2022/11/26 05:08:29;;;;;;;;;;;20.80;99.90;;;;;;5116808;28;19954;-69
2022/11/26 05:10:57;;;;;;;;;;;20.90;99.90;;;;;;5116662;28;19915;-66
2022/11/26 05:13:24;;;;;;;;;;;20.90;99.90;;;;;;5116792;28;19908;-66
2022/11/26 05:15:50;;;;;;;;;;;20.60;99.90;;;;;;5116518;28;19908;-69
2022/11/26 05:18:17;;;;;;;;;;;20.70;99.90;;;;;;5116710;28;19908;-64
2022/11/26 05:20:44;;;;;;;;;;;20.80;99.90;;;;;;5116548;28;19915;-66
2022/11/26 05:23:10;;;;;;;;;;;20.90;99.90;;;;;;5116556;28;20358;-69
2022/11/26 05:25:37;;;;;;;;;;;20.80;99.90;;;;;;5116511;28;20281;-68
2022/11/26 05:28:04;;;;;;;;;;;20.70;99.90;;;;;;5116546;28;19914;-67
2022/11/26 05:30:30;;;;;;;;;;;20.70;99.90;;;;;;5116536;28;19930;-67
2022/11/26 05:32:57;;;;;;;;;;;20.70;99.90;;;;;;5116090;28;19911;-67
2022/11/26 05:35:24;;;;;;;;;;;20.70;99.90;;;;;;5115855;28;19908;-69
2022/11/26 05:37:51;;;;;;;;;;;20.50;99.90;;;;;;5116038;28;19908;-66
2022/11/26 05:40:17;;;;;;;;;;;20.70;99.90;;;;;;5116091;28;19915;-69
2022/11/26 05:42:44;;;;;;;;;;;20.70;99.90;;;;;;5116132;28;20415;-64
2022/11/26 05:45:11;;;;;;;;;;;20.70;99.90;;;;;;5116187;28;19908;-63
2022/11/26 05:47:37;;;;;;;;;;;20.60;99.90;;;;;;5115953;28;19908;-63
2022/11/26 05:50:04;;;;;;;;;;;20.50;99.90;;;;;;5116178;28;19914;-60
2022/11/26 05:52:31;;;;;;;;;;;20.50;99.90;;;;;;5115959;28;19908;-61
2022/11/26 05:54:57;;;;;;;;;;;20.50;99.90;;;;;;5115666;28;19990;-64
2022/11/26 05:57:24;;;;;;;;;;;20.30;99.90;;;;;;5115529;28;20263;-61
2022/11/26 05:59:51;;;;;;;;;;;20.30;99.90;;;;;;5115842;28;19908;-67
2022/11/26 06:02:18;;;;;;;;;;;20.20;99.90;;;;;;5115817;28;19916;-65
2022/11/26 06:04:44;;;;;;;;;;;20.10;99.90;;;;;;5115697;28;20370;-65
2022/11/26 06:07:11;;;;;;;;;;;20.10;99.90;;;;;;5115712;28;20262;-67
2022/11/26 06:09:38;;;;;;;;;;;20.20;99.90;;;;;;5115578;28;19908;-61
2022/11/26 06:12:04;;;;;;;;;;;20.20;99.90;;;;;;5115580;28;19908;-65
2022/11/26 06:14:31;;;;;;;;;;;20.20;99.90;;;;;;5115832;28;19911;-63
2022/11/26 06:16:58;;;;;;;;;;;20.20;99.90;;;;;;5114906;28;19995;-64
2022/11/26 06:19:25;;;;;;;;;;;20.20;99.90;;;;;;5115475;28;19960;-63
2022/11/26 06:21:52;;;;;;;;;;;20.20;99.90;;;;;;5115433;28;19920;-64
2022/11/26 06:24:18;;;;;;;;;;;20.20;99.90;;;;;;5115339;28;19908;-66
2022/11/26 06:26:45;;;;;;;;;;;20.20;99.90;;;;;;5115217;28;19907;-63
2022/11/26 06:29:12;;;;;;;;;;;20.20;99.90;;;;;;5115041;28;20385;-65
2022/11/26 06:31:38;;;;;;;;;;;20.10;99.90;;;;;;5115112;28;19957;-64
2022/11/26 06:34:05;;;;;;;;;;;20.10;99.90;;;;;;5115153;28;20008;-70
2022/11/26 06:36:32;;;;;;;;;;;20.20;99.90;;;;;;5114963;28;19919;-69
2022/11/26 06:38:58;;;;;;;;;;;20.20;99.90;;;;;;5114639;28;20369;-63
2022/11/26 06:41:25;;;;;;;;;;;20.10;99.90;;;;;;5114839;28;20366;-63
2022/11/26 06:43:52;;;;;;;;;;;20.10;99.90;;;;;;5114739;28;19912;-68
2022/11/26 06:46:19;;;;;;;;;;;20.20;99.90;;;;;;5114594;28;19907;-65
2022/11/26 06:48:45;;;;;;;;;;;20.10;99.90;;;;;;5113646;28;19990;-66
2022/11/26 06:51:13;;;;;;;;;;;20.10;99.90;;;;;;5114854;28;20031;-66
2022/11/26 06:53:40;;;;;;;;;;;20.00;99.90;;;;;;5114795;28;19908;-67
2022/11/26 06:56:11;;;;;;;;;;;20.00;99.90;;;;;;5114518;28;19919;-60
2022/11/26 06:58:38;;;;;;;;;;;20.00;99.90;;;;;;5114673;28;19968;-63
2022/11/26 07:01:09;;;;;;;;;;;20.00;99.90;;;;;;5114094;28;20104;-66
2022/11/26 07:03:35;;;;;;;;;;;19.90;99.90;;;;;;5114650;28;19926;-65
2022/11/26 07:06:02;;;;;;;;;;;19.80;99.90;;;;;;5114521;28;20377;-64
2022/11/26 07:08:29;;;;;;;;;;;19.80;99.90;;;;;;5096377;28;20354;-68
2022/11/26 07:10:56;;;;;;;;;;;19.90;99.90;;;;;;5114078;28;20277;-64
2022/11/26 07:13:22;;;;;;;;;;;19.90;99.90;;;;;;5114255;28;19912;-66
2022/11/26 07:15:49;;;;;;;;;;;19.90;99.90;;;;;;5114182;28;19958;-63
2022/11/26 07:18:16;;;;;;;;;;;19.90;99.90;;;;;;5114222;28;19914;-67
2022/11/26 07:20:42;;;;;;;;;;;19.90;99.90;;;;;;5114167;28;19935;-66
2022/11/26 07:23:09;;;;;;;;;;;19.80;99.90;;;;;;5114107;28;19915;-63
2022/11/26 07:25:36;;;;;;;;;;;19.80;99.90;;;;;;5114352;28;19912;-62
2022/11/26 07:28:03;;;;;;;;;;;19.80;99.90;;;;;;5114234;28;19961;-62
2022/11/26 07:30:29;;;;;;;;;;;19.80;99.90;;;;;;5114034;28;20378;-63
2022/11/26 07:32:56;;;;;;;;;;;19.70;99.90;;;;;;5114026;28;20393;-66
2022/11/26 07:35:24;;;;;;;;;;;19.70;99.90;;;;;;5114189;28;19911;-67
2022/11/26 07:37:50;;;;;;;;;;;19.70;99.90;;;;;;5114225;28;19908;-64
2022/11/26 07:40:17;;;;;;;;;;;19.70;99.90;;;;;;5113851;28;19908;-64
2022/11/26 07:42:44;;;;;;;;;;;19.60;99.90;;;;;;5114057;28;19916;-60
2022/11/26 07:45:11;;;;;;;;;;;19.60;99.90;;;;;;5113677;28;20359;-62
2022/11/26 07:47:37;;;;;;;;;;;19.50;99.90;;;;;;5114107;28;19937;-63
2022/11/26 07:50:04;;;;;;;;;;;19.50;99.90;;;;;;5113884;28;20006;-66
2022/11/26 07:52:31;;;;;;;;;;;19.40;99.90;;;;;;5113947;28;20004;-61
2022/11/26 07:54:58;;;;;;;;;;;19.50;99.90;;;;;;5113506;28;19908;-64
2022/11/26 07:57:24;;;;;;;;;;;19.50;99.90;;;;;;5113445;28;19929;-60
2022/11/26 07:59:51;;;;;;;;;;;19.40;99.90;;;;;;5113304;28;19990;-61
2022/11/26 08:02:18;;;;;;;;;;;19.40;99.90;;;;;;5113602;28;19916;-60
2022/11/26 08:04:45;;;;;;;;;;;19.30;99.90;;;;;;5113398;28;20269;-61
2022/11/26 08:07:11;;;;;;;;;;;19.30;99.90;;;;;;5113613;28;20389;-61
2022/11/26 08:09:38;;;;;;;;;;;19.30;99.90;;;;;;5113641;28;19961;-60
2022/11/26 08:12:05;;;;;;;;;;;19.30;99.90;;;;;;5113751;28;20353;-60
2022/11/26 08:14:32;;;;;;;;;;;19.40;99.90;;;;;;5113714;28;19911;-60
2022/11/26 08:16:59;;;;;;;;;;;19.40;99.90;;;;;;5113268;28;19914;-60
2022/11/26 08:19:25;;;;;;;;;;;19.30;99.90;;;;;;5113646;28;19908;-60
2022/11/26 08:21:52;;;;;;;;;;;19.30;99.90;;;;;;5113496;28;19921;-60
2022/11/26 08:24:19;;;;;;;;;;;19.30;99.90;;;;;;5113609;28;19907;-60
2022/11/26 08:26:46;;;;;;;;;;;19.30;99.90;;;;;;5113240;28;20274;-61
2022/11/26 08:29:13;;;;;;;;;;;19.30;99.90;;;;;;5113474;28;19914;-60
2022/11/26 08:31:40;;;;;;;;;;;19.30;99.90;;;;;;5113527;28;19908;-60
2022/11/26 08:34:07;;;;;;;;;;;19.20;99.90;;;;;;5113376;28;19908;-60
2022/11/26 08:36:34;;;;;;;;;;;19.20;99.90;;;;;;5113505;28;20295;-62
2022/11/26 08:39:00;;;;;;;;;;;19.10;99.90;;;;;;5113131;28;20007;-61
2022/11/26 08:41:27;;;;;;;;;;;19.10;99.90;;;;;;5113270;28;19918;-61
2022/11/26 08:43:54;;;;;;;;;;;19.10;99.90;;;;;;5113473;28;19912;-60
2022/11/26 08:46:21;;;;;;;;;;;19.00;99.90;;;;;;5113249;28;19915;-60
2022/11/26 08:48:48;;;;;;;;;;;19.00;99.90;;;;;;5113137;28;20426;-60
2022/11/26 08:51:16;;;;;;;;;;;19.00;99.90;;;;;;5113227;28;19912;-60
2022/11/26 08:53:43;;;;;;;;;;;19.00;99.90;;;;;;5113134;28;19969;-60
2022/11/26 08:56:11;;;;;;;;;;;19.00;99.90;;;;;;5112924;28;19965;-61
2022/11/26 08:58:39;;;;;;;;;;;19.00;99.90;;;;;;5113176;28;19908;-62
2022/11/26 09:01:10;;;;;;;;;;;18.90;99.90;;;;;;5112877;28;19964;-60
2022/11/26 09:03:37;;;;;;;;;;;18.90;99.90;;;;;;5113215;28;19912;-60
2022/11/26 09:06:04;;;;;;;;;;;18.80;99.90;;;;;;5113212;28;19908;-61
2022/11/26 09:08:33;;;;;;;;;;;18.90;99.90;;;;;;5113114;28;19908;-61
2022/11/26 09:11:00;;;;;;;;;;;18.80;99.90;;;;;;5113610;28;20273;-59
2022/11/26 09:13:26;;;;;;;;;;;18.80;99.90;;;;;;5116779;28;19915;-59
2022/11/26 09:15:53;;;;;;;;;;;18.80;99.90;;;;;;5116487;28;19945;-60
2022/11/26 09:18:20;;;;;;;;;;;18.80;99.90;;;;;;5116795;28;19998;-59
2022/11/26 09:20:47;;;;;;;;;;;18.80;99.90;;;;;;5116361;28;19994;-60
2022/11/26 09:23:13;;;;;;;;;;;18.70;99.90;;;;;;5116463;28;19919;-61
2022/11/26 09:25:40;;;;;;;;;;;18.70;99.90;;;;;;5116491;28;19914;-62
2022/11/26 09:28:07;;;;;;;;;;;18.70;99.90;;;;;;5116603;28;19961;-60
2022/11/26 09:30:33;;;;;;;;;;;18.70;99.90;;;;;;5116212;28;19908;-61
2022/11/26 09:33:00;;;;;;;;;;;18.70;99.90;;;;;;5116091;28;19908;-60
2022/11/26 09:35:27;;;;;;;;;;;18.70;99.90;;;;;;5116304;28;20435;-59
2022/11/26 09:37:54;;;;;;;;;;;18.70;99.90;;;;;;5116248;28;19942;-60
2022/11/26 09:40:23;;;;;;;;;;;18.70;99.90;;;;;;5116141;28;19908;-60
2022/11/26 09:43:16;;;;;;;;;;;18.70;99.90;;;;;;5115920;28;20393;-60
2022/11/26 09:45:49;;;;;;;;;;;18.70;99.90;;;;;;5113077;28;19916;-60
2022/11/26 09:48:17;;;;;;;;;;;18.70;99.90;;;;;;5116181;28;19907;-61
2022/11/26 09:50:45;;;;;;;;;;;18.60;99.90;;;;;;5116050;28;19946;-60
2022/11/26 09:53:20;;;;;;;;;;;18.70;99.90;;;;;;5116069;28;19908;-61
2022/11/26 09:55:52;;;;;;;;;;;18.60;99.90;;;;;;5115838;28;19923;-61
2022/11/26 09:58:27;;;;;;;;;;;18.60;99.90;;;;;;5115787;28;19907;-61
2022/11/26 10:00:55;;;;;;;;;;;18.60;99.90;;;;;;5115450;28;20282;-62
2022/11/26 10:03:22;;;;;;;;;;;18.50;99.90;;;;;;5115880;28;19922;-61
2022/11/26 10:05:52;;;;;;;;;;;18.60;99.90;;;;;;5115838;28;20054;-60
2022/11/26 10:08:22;;;;;;;;;;;18.60;99.90;;;;;;5115782;28;20361;-61
2022/11/26 10:10:54;;;;;;;;;;;18.60;99.90;;;;;;5115333;28;19908;-60
2022/11/26 10:13:29;;;;;;;;;;;18.60;99.90;;;;;;5115595;28;19923;-63
2022/11/26 10:16:05;;;;;;;;;;;18.60;99.90;;;;;;5115515;28;19915;-60
2022/11/26 10:18:50;;;;;;;;;;;18.50;99.90;;;;;;5115449;28;19915;-61
2022/11/26 10:21:29;;;;;;;;;;;18.60;99.90;;;;;;5115321;28;19934;-60
2022/11/26 10:23:56;;;;;;;;;;;18.60;99.90;;;;;;5115332;28;19957;-61
2022/11/26 10:26:26;;;;;;;;;;;18.60;99.90;;;;;;5115383;28;19908;-61
2022/11/26 10:28:58;;;;;;;;;;;18.50;99.90;;;;;;5115088;28;20383;-60
2022/11/26 10:31:30;;;;;;;;;;;18.60;99.90;;;;;;5115318;28;19930;-60
2022/11/26 10:34:01;;;;;;;;;;;18.50;99.90;;;;;;5115215;28;19908;-60
2022/11/26 10:36:38;;;;;;;;;;;18.50;99.90;;;;;;5115190;28;19908;-60
2022/11/26 10:39:06;;;;;;;;;;;18.50;99.90;;;;;;5114889;28;19912;-60
2022/11/26 10:41:34;;;;;;;;;;;18.50;99.90;;;;;;5115071;28;19918;-61
2022/11/26 10:44:18;;;;;;;;;;;18.50;99.90;;;;;;5114953;28;19915;-60
2022/11/26 10:46:45;;;;;;;;;;;18.50;99.90;;;;;;5114849;28;19908;-61
2022/11/26 10:49:16;;;;;;;;;;;18.50;99.90;;;;;;5114932;28;19952;-60
2022/11/26 10:51:45;;;;;;;;;;;18.50;99.90;;;;;;5114780;28;19908;-60
2022/11/26 10:54:23;;;;;;;;;;;18.50;99.90;;;;;;5114917;28;20350;-60
2022/11/26 10:56:53;;;;;;;;;;;18.50;99.90;;;;;;5114524;28;19970;-63
2022/11/26 10:59:28;;;;;;;;;;;18.60;99.90;;;;;;5114807;28;19914;-60
2022/11/26 11:02:00;;;;;;;;;;;18.50;99.90;;;;;;5114807;28;20477;-60
2022/11/26 11:04:38;;;;;;;;;;;18.50;99.90;;;;;;5114734;28;19907;-60
2022/11/26 11:07:04;;;;;;;;;;;18.40;99.90;;;;;;5114424;28;20803;-61
2022/11/26 11:09:33;;;;;;;;;;;18.40;99.90;;;;;;5114500;28;19916;-60
2022/11/26 11:12:17;;;;;;;;;;;18.50;99.90;;;;;;5114669;28;19908;-61
2022/11/26 11:14:45;;;;;;;;;;;18.40;99.90;;;;;;5114426;28;19908;-60
2022/11/26 11:17:23;;;;;;;;;;;18.40;99.90;;;;;;5114416;28;19912;-60
2022/11/26 11:19:50;;;;;;;;;;;18.40;99.90;;;;;;5114457;28;19911;-61
2022/11/26 11:22:20;;;;;;;;;;;18.40;99.90;;;;;;5114346;28;20370;-61
2022/11/26 11:24:47;;;;;;;;;;;18.40;99.90;;;;;;5114116;28;19908;-60
2022/11/26 11:27:42;;;;;;;;;;;18.40;99.90;;;;;;5114312;28;19908;-61
2022/11/26 11:30:23;;;;;;;;;;;18.40;99.90;;;;;;5114177;28;20343;-60
2022/11/26 11:32:50;;;;;;;;;;;18.30;99.90;;;;;;5114087;28;19908;-60
2022/11/26 11:35:24;;;;;;;;;;;18.30;99.90;;;;;;5113790;28;19908;-60
2022/11/26 11:37:54;;;;;;;;;;;18.30;99.90;;;;;;5114234;28;20354;-60
2022/11/26 11:40:26;;;;;;;;;;;18.30;99.90;;;;;;5113999;28;20536;-60
2022/11/26 11:42:58;;;;;;;;;;;18.30;99.90;;;;;;5113903;28;19923;-60
2022/11/26 11:45:34;;;;;;;;;;;18.20;99.90;;;;;;5113819;28;19907;-60
2022/11/26 11:48:15;;;;;;;;;;;18.30;99.90;;;;;;5113933;28;19973;-60
2022/11/26 11:50:45;;;;;;;;;;;18.30;99.90;;;;;;5114013;28;19967;-60
2022/11/26 11:53:30;;;;;;;;;;;18.20;99.90;;;;;;5113905;28;19912;-61
2022/11/26 11:55:56;;;;;;;;;;;18.30;99.90;;;;;;5113767;28;19915;-60
2022/11/26 11:58:39;;;;;;;;;;;18.10;99.90;;;;;;5113807;28;19914;-60
2022/11/26 12:01:24;;;;;;;;;;;18.20;99.90;;;;;;5113548;28;20270;-60
2022/11/26 12:04:03;;;;;;;;;;;18.20;99.90;;;;;;5113945;28;19922;-60
2022/11/26 12:06:30;;;;;;;;;;;18.20;99.90;;;;;;5113926;28;19958;-60
2022/11/26 12:08:57;;;;;;;;;;;18.20;99.90;;;;;;5113570;28;19953;-60
2022/11/26 12:11:23;;;;;;;;;;;18.20;99.90;;;;;;5113718;28;19915;-60
2022/11/26 12:13:52;;;;;;;;;;;18.20;99.90;;;;;;5113601;28;19936;-60
2022/11/26 12:16:21;;;;;;;;;;;18.20;99.90;;;;;;5113839;28;20432;-60
2022/11/26 12:18:53;;;;;;;;;;;18.20;99.90;;;;;;5113467;28;19958;-60
2022/11/26 12:21:26;;;;;;;;;;;18.20;99.90;;;;;;5113602;28;19908;-60
2022/11/26 12:24:06;;;;;;;;;;;18.20;99.90;;;;;;5113601;28;20258;-60
2022/11/26 12:26:36;;;;;;;;;;;18.20;99.90;;;;;;5113690;28;20312;-60
2022/11/26 12:29:03;;;;;;;;;;;18.20;99.90;;;;;;5113458;28;19908;-60
2022/11/26 12:31:43;;;;;;;;;;;18.10;99.90;;;;;;5113707;28;19923;-60
2022/11/26 12:34:12;;;;;;;;;;;18.10;99.90;;;;;;5113615;28;20045;-60
2022/11/26 12:36:39;;;;;;;;;;;18.10;99.90;;;;;;5113700;28;19915;-60
2022/11/26 12:39:17;;;;;;;;;;;18.20;99.90;;;;;;5113340;28;19912;-60
2022/11/26 12:41:52;;;;;;;;;;;18.20;99.90;;;;;;5113411;28;19919;-66
2022/11/26 12:44:23;;;;;;;;;;;18.10;99.90;;;;;;5113353;28;19915;-63
2022/11/26 12:46:52;;;;;;;;;;;18.20;99.90;;;;;;5115421;28;20367;-66
2022/11/26 12:49:31;;;;;;;;;;;18.10;99.90;;;;;;5117498;28;20250;-62
2022/11/26 12:52:01;;;;;;;;;;;18.10;99.90;;;;;;5117312;28;19907;-61
2022/11/26 12:54:33;;;;;;;;;;;18.00;99.90;;;;;;5117293;28;19908;-66
2022/11/26 12:57:09;;;;;;;;;;;18.00;99.90;;;;;;5116828;28;19955;-67
2022/11/26 12:59:55;;;;;;;;;;;18.00;99.90;;;;;;5117070;28;19908;-64
2022/11/26 13:02:22;;;;;;;;;;;18.00;99.90;;;;;;5116818;28;20282;-66
2022/11/26 13:04:50;;;;;;;;;;;18.00;99.90;;;;;;5116895;28;19943;-67
2022/11/26 13:07:35;;;;;;;;;;;18.00;99.90;;;;;;5117037;28;20342;-64
2022/11/26 13:10:18;;;;;;;;;;;18.00;99.90;;;;;;5117260;28;19970;-65
2022/11/26 13:12:55;;;;;;;;;;;18.00;99.90;;;;;;5116982;28;19908;-62
2022/11/26 13:15:28;;;;;;;;;;;18.00;99.90;;;;;;5116811;28;19915;-63
2022/11/26 13:17:57;;;;;;;;;;;18.00;99.90;;;;;;5116921;28;19908;-67
2022/11/26 13:20:33;;;;;;;;;;;18.00;99.90;;;;;;5116743;28;19908;-67
2022/11/26 13:23:17;;;;;;;;;;;18.10;99.90;;;;;;5116433;28;19939;-65
2022/11/26 13:26:02;;;;;;;;;;;18.00;99.90;;;;;;5116636;28;19947;-65
2022/11/26 13:28:35;;;;;;;;;;;18.00;99.90;;;;;;5116493;28;19934;-65
2022/11/26 13:31:10;;;;;;;;;;;18.00;99.90;;;;;;5116352;28;19943;-64
2022/11/26 13:33:47;;;;;;;;;;;18.00;99.90;;;;;;5116417;28;20281;-67
2022/11/26 13:36:25;;;;;;;;;;;18.00;99.90;;;;;;5116653;28;19908;-61
2022/11/26 13:39:03;;;;;;;;;;;18.00;99.90;;;;;;5116144;28;19957;-66
2022/11/26 13:41:57;;;;;;;;;;;18.00;99.90;;;;;;5116534;28;19911;-66
2022/11/26 13:44:42;;;;;;;;;;;17.90;99.90;;;;;;5116255;28;20292;-64
2022/11/26 13:47:26;;;;;;;;;;;17.90;99.90;;;;;;5115984;28;19908;-64
2022/11/26 13:50:01;;;;;;;;;;;17.90;99.90;;;;;;5116239;28;19908;-63
2022/11/26 13:52:28;;;;;;;;;;;18.00;99.90;;;;;;5116383;28;19911;-67
2022/11/26 13:55:04;;;;;;;;;;;17.90;99.90;;;;;;5115956;28;20008;-64
2022/11/26 13:57:38;;;;;;;;;;;17.90;99.90;;;;;;5115476;28;19934;-68
2022/11/26 14:00:05;;;;;;;;;;;17.90;99.90;;;;;;5115908;28;19935;-65
2022/11/26 14:02:35;;;;;;;;;;;17.90;99.90;;;;;;5115952;28;19916;-67
2022/11/26 14:05:19;;;;;;;;;;;18.00;99.90;;;;;;5115764;28;19907;-66
2022/11/26 14:07:46;;;;;;;;;;;18.00;99.90;;;;;;5115844;28;19914;-61
2022/11/26 14:10:30;;;;;;;;;;;18.00;99.90;;;;;;5115827;28;19918;-68
2022/11/26 14:13:04;;;;;;;;;;;17.90;99.90;;;;;;5115445;28;19995;-68
2022/11/26 14:15:40;;;;;;;;;;;17.90;99.90;;;;;;5115798;28;20362;-67
2022/11/26 14:18:10;;;;;;;;;;;17.90;99.90;;;;;;5115822;28;20354;-68
2022/11/26 14:20:55;;;;;;;;;;;18.00;99.90;;;;;;5115661;28;19932;-65
2022/11/26 14:23:40;;;;;;;;;;;18.00;99.90;;;;;;5115595;28;20009;-67
2022/11/26 14:26:27;;;;;;;;;;;18.00;99.90;;;;;;5115546;28;20384;-67
2022/11/26 14:29:13;;;;;;;;;;;17.90;99.90;;;;;;5114779;28;19915;-65
2022/11/26 14:31:49;;;;;;;;;;;17.80;99.90;;;;;;5115420;28;19907;-64